sensor_id;sensor_type;location;lat;lon;timestamp;pressure;altitude;pressure_sealevel;temperature;humidity
54042;BME280;41156;51.508;5.406;2023-04-04T00:01:33;102840.75;;;0.85;81.71
54042;BME280;41156;51.508;5.406;2023-04-04T00:04:33;102833.91;;;0.81;82.56
54042;BME280;41156;51.508;5.406;2023-04-04T00:07:33;102836.75;;;0.78;82.99
54042;BME280;41156;51.508;5.406;2023-04-04T00:10:33;102836.00;;;0.76;83.85
54042;BME280;41156;51.508;5.406;2023-04-04T00:13:34;102843.34;;;0.72;83.94
54042;BME280;41156;51.508;5.406;2023-04-04T00:16:34;102841.00;;;0.68;84.38
54042;BME280;41156;51.508;5.406;2023-04-04T00:19:35;102850.03;;;0.65;84.67
54042;BME280;41156;51.508;5.406;2023-04-04T00:22:35;102851.19;;;0.61;83.72
54042;BME280;41156;51.508;5.406;2023-04-04T00:25:36;102853.94;;;0.60;84.22
54042;BME280;41156;51.508;5.406;2023-04-04T00:28:37;102846.06;;;0.58;83.94
54042;BME280;41156;51.508;5.406;2023-04-04T00:31:37;102845.22;;;0.58;85.15
54042;BME280;41156;51.508;5.406;2023-04-04T00:34:37;102846.38;;;0.53;83.56
54042;BME280;41156;51.508;5.406;2023-04-04T00:37:38;102842.94;;;0.51;84.56
54042;BME280;41156;51.508;5.406;2023-04-04T00:40:46;102853.69;;;0.50;87.73
54042;BME280;41156;51.508;5.406;2023-04-04T00:43:47;102844.94;;;0.48;85.53
54042;BME280;41156;51.508;5.406;2023-04-04T00:46:48;102850.38;;;0.46;85.97
54042;BME280;41156;51.508;5.406;2023-04-04T00:49:48;102852.94;;;0.48;86.39
54042;BME280;41156;51.508;5.406;2023-04-04T00:52:48;102853.69;;;0.50;85.93
54042;BME280;41156;51.508;5.406;2023-04-04T00:55:48;102852.75;;;0.51;85.69
54042;BME280;41156;51.508;5.406;2023-04-04T00:58:49;102852.84;;;0.49;85.56
54042;BME280;41156;51.508;5.406;2023-04-04T01:01:50;102851.25;;;0.47;85.77
54042;BME280;41156;51.508;5.406;2023-04-04T01:04:50;102855.03;;;0.43;85.30
54042;BME280;41156;51.508;5.406;2023-04-04T01:07:51;102848.13;;;0.40;85.95
54042;BME280;41156;51.508;5.406;2023-04-04T01:10:51;102848.22;;;0.39;85.32
54042;BME280;41156;51.508;5.406;2023-04-04T01:13:52;102858.88;;;0.39;86.42
54042;BME280;41156;51.508;5.406;2023-04-04T01:16:52;102846.69;;;0.34;86.74
54042;BME280;41156;51.508;5.406;2023-04-04T01:20:14;102838.91;;;0.31;90.31
54042;BME280;41156;51.508;5.406;2023-04-04T01:23:15;102834.94;;;0.24;86.92
54042;BME280;41156;51.508;5.406;2023-04-04T01:26:16;102826.22;;;0.22;87.14
54042;BME280;41156;51.508;5.406;2023-04-04T01:29:16;102826.50;;;0.17;87.15
54042;BME280;41156;51.508;5.406;2023-04-04T01:32:27;102819.69;;;0.13;88.80
54042;BME280;41156;51.508;5.406;2023-04-04T01:38:52;102823.56;;;0.08;91.65
54042;BME280;41156;51.508;5.406;2023-04-04T01:41:55;102819.31;;;0.05;89.04
54042;BME280;41156;51.508;5.406;2023-04-04T01:44:55;102816.94;;;0.01;88.52
54042;BME280;41156;51.508;5.406;2023-04-04T01:47:56;102807.44;;;-0.04;89.10
54042;BME280;41156;51.508;5.406;2023-04-04T01:50:56;102812.84;;;-0.05;89.17
54042;BME280;41156;51.508;5.406;2023-04-04T01:53:57;102820.94;;;-0.07;88.60
54042;BME280;41156;51.508;5.406;2023-04-04T01:56:57;102815.75;;;-0.08;89.02
54042;BME280;41156;51.508;5.406;2023-04-04T01:59:57;102807.94;;;-0.11;89.25
54042;BME280;41156;51.508;5.406;2023-04-04T02:02:58;102811.63;;;-0.14;89.65
54042;BME280;41156;51.508;5.406;2023-04-04T02:05:59;102810.06;;;-0.16;89.10
54042;BME280;41156;51.508;5.406;2023-04-04T02:08:59;102812.81;;;-0.18;89.38
54042;BME280;41156;51.508;5.406;2023-04-04T02:12:00;102808.59;;;-0.22;89.07
54042;BME280;41156;51.508;5.406;2023-04-04T02:15:00;102807.09;;;-0.26;88.49
54042;BME280;41156;51.508;5.406;2023-04-04T02:18:01;102824.94;;;-0.28;89.31
54042;BME280;41156;51.508;5.406;2023-04-04T02:21:01;102819.81;;;-0.31;88.99
54042;BME280;41156;51.508;5.406;2023-04-04T02:24:01;102810.22;;;-0.34;89.21
54042;BME280;41156;51.508;5.406;2023-04-04T02:27:02;102822.94;;;-0.39;89.44
54042;BME280;41156;51.508;5.406;2023-04-04T02:30:03;102824.09;;;-0.43;89.80
54042;BME280;41156;51.508;5.406;2023-04-04T02:33:04;102825.22;;;-0.47;89.64
54042;BME280;41156;51.508;5.406;2023-04-04T02:36:04;102829.78;;;-0.49;90.04
54042;BME280;41156;51.508;5.406;2023-04-04T02:39:05;102834.34;;;-0.51;90.14
54042;BME280;41156;51.508;5.406;2023-04-04T02:42:05;102834.50;;;-0.54;91.65
54042;BME280;41156;51.508;5.406;2023-04-04T02:45:06;102832.97;;;-0.59;91.57
54042;BME280;41156;51.508;5.406;2023-04-04T02:48:06;102833.06;;;-0.60;92.27
54042;BME280;41156;51.508;5.406;2023-04-04T02:51:06;102827.00;;;-0.62;92.07
54042;BME280;41156;51.508;5.406;2023-04-04T02:54:07;102825.41;;;-0.65;92.75
54042;BME280;41156;51.508;5.406;2023-04-04T02:57:07;102817.78;;;-0.71;92.37
54042;BME280;41156;51.508;5.406;2023-04-04T03:00:08;102812.75;;;-0.76;92.40
54042;BME280;41156;51.508;5.406;2023-04-04T03:03:08;102816.47;;;-0.78;91.87
54042;BME280;41156;51.508;5.406;2023-04-04T03:06:09;102812.19;;;-0.81;92.58
54042;BME280;41156;51.508;5.406;2023-04-04T03:09:10;102807.94;;;-0.83;92.38
54042;BME280;41156;51.508;5.406;2023-04-04T03:12:10;102822.13;;;-0.84;92.02
54042;BME280;41156;51.508;5.406;2023-04-04T03:15:11;102810.66;;;-0.85;93.56
54042;BME280;41156;51.508;5.406;2023-04-04T03:18:11;102825.81;;;-0.87;93.10
54042;BME280;41156;51.508;5.406;2023-04-04T03:21:11;102829.50;;;-0.89;92.77
54042;BME280;41156;51.508;5.406;2023-04-04T03:24:12;102826.09;;;-0.91;92.20
54042;BME280;41156;51.508;5.406;2023-04-04T03:27:12;102823.34;;;-0.90;93.42
54042;BME280;41156;51.508;5.406;2023-04-04T03:30:13;102825.13;;;-0.90;93.96
54042;BME280;41156;51.508;5.406;2023-04-04T03:33:13;102827.88;;;-0.92;94.05
54042;BME280;41156;51.508;5.406;2023-04-04T03:36:14;102821.91;;;-0.96;94.20
54042;BME280;41156;51.508;5.406;2023-04-04T03:39:14;102815.94;;;-0.99;95.30
54042;BME280;41156;51.508;5.406;2023-04-04T03:42:15;102811.72;;;-1.03;94.25
54042;BME280;41156;51.508;5.406;2023-04-04T03:45:15;102802.16;;;-1.06;94.22
54042;BME280;41156;51.508;5.406;2023-04-04T03:48:16;102801.41;;;-1.08;93.79
54042;BME280;41156;51.508;5.406;2023-04-04T03:51:23;102798.94;;;-1.11;96.43
54042;BME280;41156;51.508;5.406;2023-04-04T03:54:23;102791.06;;;-1.13;97.38
54042;BME280;41156;51.508;5.406;2023-04-04T03:57:24;102792.09;;;-1.15;95.55
54042;BME280;41156;51.508;5.406;2023-04-04T04:00:24;102792.19;;;-1.17;94.99
54042;BME280;41156;51.508;5.406;2023-04-04T04:03:25;102790.56;;;-1.19;95.57
54042;BME280;41156;51.508;5.406;2023-04-04T04:06:25;102793.31;;;-1.21;95.77
54042;BME280;41156;51.508;5.406;2023-04-04T04:09:26;102796.13;;;-1.24;96.09
54042;BME280;41156;51.508;5.406;2023-04-04T04:12:26;102803.44;;;-1.27;96.32
54042;BME280;41156;51.508;5.406;2023-04-04T04:15:26;102802.66;;;-1.29;96.49
54042;BME280;41156;51.508;5.406;2023-04-04T04:18:27;102794.97;;;-1.34;95.67
54042;BME280;41156;51.508;5.406;2023-04-04T04:21:27;102799.53;;;-1.36;96.97
54042;BME280;41156;51.508;5.406;2023-04-04T04:24:27;102795.22;;;-1.39;96.94
54042;BME280;41156;51.508;5.406;2023-04-04T04:27:28;102792.75;;;-1.42;95.90
54042;BME280;41156;51.508;5.406;2023-04-04T04:30:29;102792.84;;;-1.43;97.20
54042;BME280;41156;51.508;5.406;2023-04-04T04:33:30;102791.31;;;-1.47;97.44
54042;BME280;41156;51.508;5.406;2023-04-04T04:36:30;102787.13;;;-1.52;97.54
54042;BME280;41156;51.508;5.406;2023-04-04T04:39:31;102781.06;;;-1.54;97.67
54042;BME280;41156;51.508;5.406;2023-04-04T04:42:31;102788.25;;;-1.56;98.59
54042;BME280;41156;51.508;5.406;2023-04-04T04:45:32;102793.56;;;-1.56;97.71
54042;BME280;41156;51.508;5.406;2023-04-04T04:48:32;102786.53;;;-1.57;98.06
54042;BME280;41156;51.508;5.406;2023-04-04T04:51:32;102788.34;;;-1.57;98.42
54042;BME280;41156;51.508;5.406;2023-04-04T04:54:33;102797.34;;;-1.60;96.28
54042;BME280;41156;51.508;5.406;2023-04-04T04:57:33;102809.81;;;-1.62;98.26
54042;BME280;41156;51.508;5.406;2023-04-04T05:00:34;102811.69;;;-1.64;97.79
54042;BME280;41156;51.508;5.406;2023-04-04T05:03:34;102809.88;;;-1.63;98.72
54042;BME280;41156;51.508;5.406;2023-04-04T05:06:35;102825.78;;;-1.63;98.61
54042;BME280;41156;51.508;5.406;2023-04-04T05:09:37;102825.72;;;-1.62;99.22
54042;BME280;41156;51.508;5.406;2023-04-04T05:12:42;102828.34;;;-1.62;98.17
54042;BME280;41156;51.508;5.406;2023-04-04T05:15:45;102825.72;;;-1.62;99.75
54042;BME280;41156;51.508;5.406;2023-04-04T05:18:46;102828.34;;;-1.62;98.27
54042;BME280;41156;51.508;5.406;2023-04-04T05:21:46;102824.84;;;-1.62;99.22
54042;BME280;41156;51.508;5.406;2023-04-04T05:24:46;102831.00;;;-1.62;99.50
54042;BME280;41156;51.508;5.406;2023-04-04T05:27:47;102832.06;;;-1.64;99.59
54042;BME280;41156;51.508;5.406;2023-04-04T05:30:47;102822.28;;;-1.64;100.00
54042;BME280;41156;51.508;5.406;2023-04-04T05:33:48;102824.84;;;-1.62;100.00
54042;BME280;41156;51.508;5.406;2023-04-04T05:36:48;102824.69;;;-1.59;100.00
54042;BME280;41156;51.508;5.406;2023-04-04T05:39:48;102821.97;;;-1.58;100.00
54042;BME280;41156;51.508;5.406;2023-04-04T05:42:55;102826.22;;;-1.55;100.00
54042;BME280;41156;51.508;5.406;2023-04-04T05:45:56;102832.03;;;-1.49;100.00
54042;BME280;41156;51.508;5.406;2023-04-04T05:48:56;102835.28;;;-1.43;100.00
54042;BME280;41156;51.508;5.406;2023-04-04T05:51:56;102836.81;;;-1.39;99.90
54042;BME280;41156;51.508;5.406;2023-04-04T05:54:56;102840.91;;;-1.34;100.00
54042;BME280;41156;51.508;5.406;2023-04-04T05:57:57;102844.94;;;-1.26;99.85
54042;BME280;41156;51.508;5.406;2023-04-04T06:00:57;102843.47;;;-1.16;99.69
54042;BME280;41156;51.508;5.406;2023-04-04T06:03:57;102839.06;;;-1.01;99.36
54042;BME280;41156;51.508;5.406;2023-04-04T06:06:59;102838.06;;;-0.84;98.89
54042;BME280;41156;51.508;5.406;2023-04-04T06:10:00;102834.31;;;-0.66;100.00
54042;BME280;41156;51.508;5.406;2023-04-04T06:13:00;102835.00;;;-0.48;99.32
54042;BME280;41156;51.508;5.406;2023-04-04T06:16:00;102838.25;;;-0.28;98.90
54042;BME280;41156;51.508;5.406;2023-04-04T06:19:00;102838.78;;;-0.09;98.35
54042;BME280;41156;51.508;5.406;2023-04-04T06:22:01;102838.88;;;0.04;98.10
54042;BME280;41156;51.508;5.406;2023-04-04T06:25:01;102839.16;;;0.14;97.31
54042;BME280;41156;51.508;5.406;2023-04-04T06:28:01;102842.06;;;0.24;97.09
54042;BME280;41156;51.508;5.406;2023-04-04T06:31:05;102848.59;;;0.32;95.88
54042;BME280;41156;51.508;5.406;2023-04-04T06:34:06;102849.91;;;0.40;95.27
54042;BME280;41156;51.508;5.406;2023-04-04T06:37:06;102857.31;;;0.49;94.83
54042;BME280;41156;51.508;5.406;2023-04-04T06:40:07;102860.31;;;0.57;94.74
54042;BME280;41156;51.508;5.406;2023-04-04T06:43:08;102854.38;;;0.66;94.33
54042;BME280;41156;51.508;5.406;2023-04-04T06:46:09;102852.97;;;0.75;94.17
54042;BME280;41156;51.508;5.406;2023-04-04T06:49:09;102870.03;;;0.85;93.78
54042;BME280;41156;51.508;5.406;2023-04-04T06:52:10;102859.53;;;0.97;93.15
54042;BME280;41156;51.508;5.406;2023-04-04T06:55:10;102865.59;;;1.11;92.60
54042;BME280;41156;51.508;5.406;2023-04-04T06:58:12;102871.84;;;1.51;92.79
54042;BME280;41156;51.508;5.406;2023-04-04T07:01:12;102864.34;;;2.57;90.19
54042;BME280;41156;51.508;5.406;2023-04-04T07:04:12;102857.81;;;4.01;87.30
54042;BME280;41156;51.508;5.406;2023-04-04T07:07:13;102862.81;;;5.26;84.51
54042;BME280;41156;51.508;5.406;2023-04-04T07:10:13;102855.19;;;6.35;83.81
54042;BME280;41156;51.508;5.406;2023-04-04T07:13:13;102860.19;;;7.08;76.06
54042;BME280;41156;51.508;5.406;2023-04-04T07:16:14;102859.50;;;7.72;77.93
54042;BME280;41156;51.508;5.406;2023-04-04T07:19:14;102862.41;;;8.26;67.80
54042;BME280;41156;51.508;5.406;2023-04-04T07:22:15;102856.41;;;8.60;78.16
54042;BME280;41156;51.508;5.406;2023-04-04T07:25:15;102859.19;;;8.86;72.87
54042;BME280;41156;51.508;5.406;2023-04-04T07:28:16;102854.47;;;9.24;71.02
54042;BME280;41156;51.508;5.406;2023-04-04T07:31:16;102854.22;;;9.62;69.24
54042;BME280;41156;51.508;5.406;2023-04-04T07:34:16;102846.19;;;10.05;68.52
54042;BME280;41156;51.508;5.406;2023-04-04T07:37:16;102842.72;;;10.29;67.09
54042;BME280;41156;51.508;5.406;2023-04-04T07:40:17;102834.06;;;10.68;68.66
54042;BME280;41156;51.508;5.406;2023-04-04T07:43:18;102836.97;;;10.83;48.66
54042;BME280;41156;51.508;5.406;2023-04-04T07:46:18;102844.34;;;10.56;58.34
54042;BME280;41156;51.508;5.406;2023-04-04T07:49:19;102837.78;;;10.75;62.87
54042;BME280;41156;51.508;5.406;2023-04-04T07:52:19;102841.50;;;10.90;60.53
54042;BME280;41156;51.508;5.406;2023-04-04T07:55:20;102838.31;;;11.11;59.82
54042;BME280;41156;51.508;5.406;2023-04-04T07:58:24;102838.78;;;11.32;58.83
54042;BME280;41156;51.508;5.406;2023-04-04T08:01:24;102848.94;;;11.54;57.38
54042;BME280;41156;51.508;5.406;2023-04-04T08:04:24;102846.25;;;11.29;52.52
54042;BME280;41156;51.508;5.406;2023-04-04T08:07:24;102848.28;;;11.03;56.48
54042;BME280;41156;51.508;5.406;2023-04-04T08:10:25;102848.97;;;10.97;52.68
54042;BME280;41156;51.508;5.406;2023-04-04T08:13:26;102844.91;;;10.92;52.59
54042;BME280;41156;51.508;5.406;2023-04-04T08:16:26;102846.22;;;10.80;53.88
54042;BME280;41156;51.508;5.406;2023-04-04T08:19:26;102845.41;;;10.96;53.91
54042;BME280;41156;51.508;5.406;2023-04-04T08:22:27;102852.50;;;11.05;54.01
54042;BME280;41156;51.508;5.406;2023-04-04T08:25:27;102857.38;;;10.77;51.04
54042;BME280;41156;51.508;5.406;2023-04-04T08:28:28;102848.00;;;10.39;51.60
54042;BME280;41156;51.508;5.406;2023-04-04T08:31:29;102847.44;;;10.27;54.34
54042;BME280;41156;51.508;5.406;2023-04-04T08:34:29;102848.06;;;10.12;52.11
54042;BME280;41156;51.508;5.406;2023-04-04T08:37:30;102847.47;;;9.92;53.97
54042;BME280;41156;51.508;5.406;2023-04-04T08:40:30;102844.84;;;9.74;52.67
54042;BME280;41156;51.508;5.406;2023-04-04T08:43:33;102843.88;;;9.57;48.70
54042;BME280;41156;51.508;5.406;2023-04-04T08:46:34;102843.72;;;9.59;52.55
54042;BME280;41156;51.508;5.406;2023-04-04T08:49:37;102840.63;;;9.45;44.87
54042;BME280;41156;51.508;5.406;2023-04-04T08:52:40;102838.41;;;9.41;51.20
54042;BME280;41156;51.508;5.406;2023-04-04T08:55:42;102830.97;;;9.17;47.89
54042;BME280;41156;51.508;5.406;2023-04-04T08:58:42;102836.38;;;8.99;50.28
54042;BME280;41156;51.508;5.406;2023-04-04T09:01:43;102836.00;;;8.94;48.79
54042;BME280;41156;51.508;5.406;2023-04-04T09:04:44;102828.72;;;8.86;46.39
54042;BME280;41156;51.508;5.406;2023-04-04T09:07:49;102838.63;;;8.85;51.49
54042;BME280;41156;51.508;5.406;2023-04-04T09:10:51;102838.00;;;8.92;51.03
54042;BME280;41156;51.508;5.406;2023-04-04T09:13:51;102828.72;;;8.86;49.83
54042;BME280;41156;51.508;5.406;2023-04-04T09:16:53;102837.41;;;8.80;51.01
54042;BME280;41156;51.508;5.406;2023-04-04T09:19:54;102836.72;;;8.78;49.82
54042;BME280;41156;51.508;5.406;2023-04-04T09:22:54;102835.25;;;8.83;50.95
54042;BME280;41156;51.508;5.406;2023-04-04T09:25:55;102832.78;;;8.72;49.23
54042;BME280;41156;51.508;5.406;2023-04-04T09:28:55;102831.88;;;8.81;47.07
54042;BME280;41156;51.508;5.406;2023-04-04T09:31:55;102830.22;;;8.88;49.31
54042;BME280;41156;51.508;5.406;2023-04-04T09:34:55;102831.69;;;9.01;46.74
54042;BME280;41156;51.508;5.406;2023-04-04T09:37:56;102826.72;;;9.14;49.56
54042;BME280;41156;51.508;5.406;2023-04-04T09:40:57;102833.81;;;9.15;45.78
54042;BME280;41156;51.508;5.406;2023-04-04T09:43:57;102828.88;;;9.29;47.55
54042;BME280;41156;51.508;5.406;2023-04-04T09:47:26;102830.13;;;9.42;47.27
54042;BME280;41156;51.508;5.406;2023-04-04T09:50:27;102842.53;;;9.53;47.58
54042;BME280;41156;51.508;5.406;2023-04-04T09:53:29;102830.91;;;9.53;46.19
54042;BME280;41156;51.508;5.406;2023-04-04T09:56:33;102826.75;;;9.40;44.48
54042;BME280;41156;51.508;5.406;2023-04-04T09:59:33;102819.69;;;9.39;44.03
54042;BME280;41156;51.508;5.406;2023-04-04T10:02:36;102822.91;;;9.43;42.87
54042;BME280;41156;51.508;5.406;2023-04-04T10:05:37;102821.78;;;9.54;44.33
54042;BME280;41156;51.508;5.406;2023-04-04T10:08:40;102815.00;;;9.76;44.67
54042;BME280;41156;51.508;5.406;2023-04-04T10:11:42;102816.00;;;9.75;43.30
54042;BME280;41156;51.508;5.406;2023-04-04T10:14:43;102806.16;;;9.66;44.51
54042;BME280;41156;51.508;5.406;2023-04-04T10:17:44;102811.47;;;9.84;45.08
54042;BME280;41156;51.508;5.406;2023-04-04T10:20:48;102793.16;;;10.04;44.44
54042;BME280;41156;51.508;5.406;2023-04-04T10:23:49;102800.25;;;10.05;43.82
54042;BME280;41156;51.508;5.406;2023-04-04T10:26:49;102799.63;;;10.19;44.44
54042;BME280;41156;51.508;5.406;2023-04-04T10:29:50;102805.09;;;10.35;44.25
54042;BME280;41156;51.508;5.406;2023-04-04T10:33:05;102799.31;;;10.30;41.58
54042;BME280;41156;51.508;5.406;2023-04-04T10:36:08;102805.75;;;10.29;44.25
54042;BME280;41156;51.508;5.406;2023-04-04T10:39:14;102798.38;;;10.40;44.02
54042;BME280;41156;51.508;5.406;2023-04-04T10:42:18;102782.19;;;10.64;45.05
54042;BME280;41156;51.508;5.406;2023-04-04T10:45:18;102799.44;;;10.80;43.85
54042;BME280;41156;51.508;5.406;2023-04-04T10:48:19;102792.31;;;10.95;42.84
54042;BME280;41156;51.508;5.406;2023-04-04T10:51:20;102783.84;;;11.06;42.87
54042;BME280;41156;51.508;5.406;2023-04-04T10:54:21;102781.31;;;11.13;42.53
54042;BME280;41156;51.508;5.406;2023-04-04T10:57:22;102788.94;;;11.09;43.27
54042;BME280;41156;51.508;5.406;2023-04-04T11:00:23;102777.06;;;11.10;43.44
54042;BME280;41156;51.508;5.406;2023-04-04T11:03:23;102777.78;;;11.13;43.68
54042;BME280;41156;51.508;5.406;2023-04-04T11:07:02;102777.94;;;11.11;41.57
54042;BME280;41156;51.508;5.406;2023-04-04T11:10:12;102773.19;;;11.13;41.86
54042;BME280;41156;51.508;5.406;2023-04-04T11:13:26;102770.16;;;11.24;41.19
54042;BME280;41156;51.508;5.406;2023-04-04T11:16:42;102764.69;;;11.41;40.66
54042;BME280;41156;51.508;5.406;2023-04-04T11:19:57;102758.09;;;11.35;40.14
54042;BME280;41156;51.508;5.406;2023-04-04T11:23:02;102745.19;;;11.54;42.70
54042;BME280;41156;51.508;5.406;2023-04-04T11:26:05;102753.59;;;11.67;38.87
54042;BME280;41156;51.508;5.406;2023-04-04T11:29:06;102744.72;;;11.81;40.92
54042;BME280;41156;51.508;5.406;2023-04-04T11:32:28;102744.66;;;12.06;42.78
54042;BME280;41156;51.508;5.406;2023-04-04T11:35:28;102740.50;;;12.18;42.81
54042;BME280;41156;51.508;5.406;2023-04-04T11:38:29;102741.53;;;12.17;40.41
54042;BME280;41156;51.508;5.406;2023-04-04T11:42:11;102739.63;;;11.95;39.09
54042;BME280;41156;51.508;5.406;2023-04-04T11:45:19;102739.66;;;12.18;39.98
54042;BME280;41156;51.508;5.406;2023-04-04T11:48:19;102735.72;;;12.20;40.19
54042;BME280;41156;51.508;5.406;2023-04-04T11:51:21;102731.72;;;12.39;40.79
54042;BME280;41156;51.508;5.406;2023-04-04T11:54:22;102733.31;;;12.26;41.36
54042;BME280;41156;51.508;5.406;2023-04-04T11:57:22;102730.50;;;12.42;41.16
54042;BME280;41156;51.508;5.406;2023-04-04T12:00:30;102727.53;;;12.52;39.96
54042;BME280;41156;51.508;5.406;2023-04-04T12:03:30;102715.63;;;12.61;40.37
54042;BME280;41156;51.508;5.406;2023-04-04T12:06:31;102716.00;;;12.73;38.67
54042;BME280;41156;51.508;5.406;2023-04-04T12:09:37;102717.47;;;12.61;39.83
54042;BME280;41156;51.508;5.406;2023-04-04T12:12:38;102715.28;;;12.79;41.34
54042;BME280;41156;51.508;5.406;2023-04-04T12:15:41;102708.97;;;13.17;40.11
54042;BME280;41156;51.508;5.406;2023-04-04T12:18:41;102694.94;;;13.28;41.60
54042;BME280;41156;51.508;5.406;2023-04-04T12:21:44;102692.41;;;13.41;40.78
54042;BME280;41156;51.508;5.406;2023-04-04T12:24:45;102694.31;;;13.41;38.59
54042;BME280;41156;51.508;5.406;2023-04-04T12:27:46;102691.47;;;13.19;40.54
54042;BME280;41156;51.508;5.406;2023-04-04T12:30:48;102683.22;;;13.27;40.74
54042;BME280;41156;51.508;5.406;2023-04-04T12:33:48;102684.84;;;13.37;37.90
54042;BME280;41156;51.508;5.406;2023-04-04T12:36:51;102685.66;;;13.37;38.36
54042;BME280;41156;51.508;5.406;2023-04-04T12:39:52;102677.44;;;13.01;39.37
54042;BME280;41156;51.508;5.406;2023-04-04T12:42:52;102691.91;;;12.93;39.22
54042;BME280;41156;51.508;5.406;2023-04-04T12:45:54;102685.00;;;13.05;39.94
54042;BME280;41156;51.508;5.406;2023-04-04T12:48:56;102672.28;;;13.06;40.27
54042;BME280;41156;51.508;5.406;2023-04-04T12:51:57;102668.53;;;13.07;39.09
54042;BME280;41156;51.508;5.406;2023-04-04T12:55:07;102670.63;;;12.67;36.14
54042;BME280;41156;51.508;5.406;2023-04-04T12:58:08;102678.38;;;12.55;39.07
54042;BME280;41156;51.508;5.406;2023-04-04T13:01:08;102661.13;;;12.86;39.82
54042;BME280;41156;51.508;5.406;2023-04-04T13:04:09;102652.41;;;13.20;38.52
54042;BME280;41156;51.508;5.406;2023-04-04T13:07:27;102635.31;;;13.35;37.74
54042;BME280;41156;51.508;5.406;2023-04-04T13:10:27;102633.50;;;13.42;37.80
54042;BME280;41156;51.508;5.406;2023-04-04T13:13:39;102624.00;;;13.67;37.86
54042;BME280;41156;51.508;5.406;2023-04-04T13:16:40;102620.91;;;13.92;37.51
54042;BME280;41156;51.508;5.406;2023-04-04T13:19:40;102622.00;;;13.76;38.05
54042;BME280;41156;51.508;5.406;2023-04-04T13:22:41;102618.88;;;13.58;38.76
54042;BME280;41156;51.508;5.406;2023-04-04T13:25:42;102617.50;;;13.47;38.63
54042;BME280;41156;51.508;5.406;2023-04-04T13:28:42;102617.94;;;13.50;39.11
54042;BME280;41156;51.508;5.406;2023-04-04T13:31:42;102611.22;;;13.46;37.15
54042;BME280;41156;51.508;5.406;2023-04-04T13:34:43;102609.97;;;13.64;38.76
54042;BME280;41156;51.508;5.406;2023-04-04T13:37:43;102616.38;;;13.78;37.53
54042;BME280;41156;51.508;5.406;2023-04-04T13:40:44;102602.88;;;13.84;38.18
54042;BME280;41156;51.508;5.406;2023-04-04T13:43:44;102600.22;;;13.91;37.52
54042;BME280;41156;51.508;5.406;2023-04-04T13:46:48;102599.97;;;13.86;36.71
54042;BME280;41156;51.508;5.406;2023-04-04T13:49:48;102593.59;;;13.79;38.77
54042;BME280;41156;51.508;5.406;2023-04-04T13:52:49;102587.25;;;13.93;38.71
54042;BME280;41156;51.508;5.406;2023-04-04T13:55:51;102588.81;;;14.02;38.20
54042;BME280;41156;51.508;5.406;2023-04-04T13:58:51;102573.69;;;13.93;38.79
54042;BME280;41156;51.508;5.406;2023-04-04T14:01:52;102571.94;;;13.64;38.30
54042;BME280;41156;51.508;5.406;2023-04-04T14:04:53;102573.22;;;13.68;38.84
54042;BME280;41156;51.508;5.406;2023-04-04T14:07:53;102564.63;;;13.64;37.66
54042;BME280;41156;51.508;5.406;2023-04-04T14:10:53;102564.19;;;13.61;36.98
54042;BME280;41156;51.508;5.406;2023-04-04T14:13:53;102563.69;;;13.57;38.42
54042;BME280;41156;51.508;5.406;2023-04-04T14:16:54;102556.94;;;13.68;38.00
54042;BME280;41156;51.508;5.406;2023-04-04T14:19:55;102555.22;;;13.88;36.46
54042;BME280;41156;51.508;5.406;2023-04-04T14:22:55;102556.34;;;13.94;36.36
54042;BME280;41156;51.508;5.406;2023-04-04T14:25:59;102558.72;;;14.04;38.45
54042;BME280;41156;51.508;5.406;2023-04-04T14:29:02;102550.78;;;14.02;37.68
54042;BME280;41156;51.508;5.406;2023-04-04T14:32:02;102555.97;;;13.97;37.45
54042;BME280;41156;51.508;5.406;2023-04-04T14:35:03;102543.97;;;13.92;38.75
54042;BME280;41156;51.508;5.406;2023-04-04T14:38:03;102547.06;;;13.88;36.86
54042;BME280;41156;51.508;5.406;2023-04-04T14:41:03;102541.66;;;13.67;37.28
54042;BME280;41156;51.508;5.406;2023-04-04T14:44:04;102542.56;;;13.74;38.67
54042;BME280;41156;51.508;5.406;2023-04-04T14:47:04;102537.16;;;13.74;38.16
54042;BME280;41156;51.508;5.406;2023-04-04T14:50:05;102533.75;;;13.94;38.94
54042;BME280;41156;51.508;5.406;2023-04-04T14:53:06;102525.84;;;13.99;38.87
54042;BME280;41156;51.508;5.406;2023-04-04T14:56:07;102532.56;;;14.03;38.45
54042;BME280;41156;51.508;5.406;2023-04-04T14:59:07;102521.41;;;13.91;38.17
54042;BME280;41156;51.508;5.406;2023-04-04T15:02:07;102518.19;;;13.81;37.56
54042;BME280;41156;51.508;5.406;2023-04-04T15:05:08;102513.38;;;13.83;38.65
54042;BME280;41156;51.508;5.406;2023-04-04T15:08:09;102517.91;;;13.97;37.58
54042;BME280;41156;51.508;5.406;2023-04-04T15:11:09;102510.28;;;13.86;37.15
54042;BME280;41156;51.508;5.406;2023-04-04T15:14:12;102505.38;;;13.75;35.85
54042;BME280;41156;51.508;5.406;2023-04-04T15:17:13;102508.34;;;13.80;37.96
54042;BME280;41156;51.508;5.406;2023-04-04T15:20:13;102496.81;;;13.99;37.47
54042;BME280;41156;51.508;5.406;2023-04-04T15:23:14;102501.81;;;13.96;37.79
54042;BME280;41156;51.508;5.406;2023-04-04T15:26:14;102496.91;;;13.84;37.16
54042;BME280;41156;51.508;5.406;2023-04-04T15:29:14;102504.22;;;13.84;38.26
54042;BME280;41156;51.508;5.406;2023-04-04T15:32:15;102503.16;;;13.85;38.19
54042;BME280;41156;51.508;5.406;2023-04-04T15:35:18;102498.47;;;14.00;38.31
54042;BME280;41156;51.508;5.406;2023-04-04T15:38:18;102488.50;;;14.07;38.13
54042;BME280;41156;51.508;5.406;2023-04-04T15:41:19;102489.53;;;14.06;37.41
54042;BME280;41156;51.508;5.406;2023-04-04T15:44:20;102475.59;;;13.88;37.70
54042;BME280;41156;51.508;5.406;2023-04-04T15:47:20;102488.97;;;13.61;38.24
54042;BME280;41156;51.508;5.406;2023-04-04T15:50:20;102484.09;;;13.35;38.88
54042;BME280;41156;51.508;5.406;2023-04-04T15:53:21;102487.28;;;13.24;39.10
54042;BME280;41156;51.508;5.406;2023-04-04T15:56:21;102471.59;;;13.19;38.96